createdAt,value
2022-09-27T00:01:00.909Z,1.30
2022-09-27T00:03:32.217Z,1.65
2022-09-27T00:06:15.829Z,1.65
2022-09-27T00:08:43.710Z,1.67
2022-09-27T00:11:34.636Z,1.27
2022-09-27T00:14:02.721Z,1.70
2022-09-27T00:16:32.321Z,1.52
2022-09-27T00:19:06.317Z,1.23
2022-09-27T00:21:34.136Z,1.50
2022-09-27T00:24:01.758Z,1.67
2022-09-27T00:26:29.911Z,1.95
2022-09-27T00:28:57.867Z,2.08
2022-09-27T00:31:29.814Z,1.90
2022-09-27T00:34:02.202Z,1.70
2022-09-27T00:36:30.561Z,1.73
2022-09-27T00:39:01.758Z,1.80
2022-09-27T00:41:32.343Z,1.70
2022-09-27T00:44:24.631Z,2.20
2022-09-27T00:47:01.844Z,2.28
2022-09-27T00:49:38.050Z,2.70
2022-09-27T00:52:10.200Z,2.63
2022-09-27T00:54:41.004Z,2.80
2022-09-27T00:57:09.175Z,3.70
2022-09-27T00:59:43.708Z,4.25
2022-09-27T01:02:11.770Z,3.70
2022-09-27T01:04:42.967Z,4.25
2022-09-27T01:07:10.670Z,4.20
2022-09-27T01:09:38.148Z,4.55
2022-09-27T01:12:23.954Z,4.10
2022-09-27T01:14:54.242Z,3.88
2022-09-27T01:17:30.107Z,3.75
2022-09-27T01:20:25.421Z,4.10
2022-09-27T01:23:23.288Z,3.72
2022-09-27T01:26:09.558Z,4.07
2022-09-27T01:28:40.211Z,3.55
2022-09-27T01:31:23.127Z,2.90
2022-09-27T01:34:09.843Z,3.53
2022-09-27T01:36:43.347Z,3.58
2022-09-27T01:39:34.420Z,3.47
2022-09-27T01:42:30.541Z,3.67
2022-09-27T01:45:23.026Z,3.33
2022-09-27T01:48:22.175Z,3.42
2022-09-27T01:50:57.144Z,3.70
2022-09-27T01:53:33.332Z,3.90
2022-09-27T01:56:46.258Z,4.13
2022-09-27T01:59:29.793Z,3.83
2022-09-27T02:02:18.180Z,3.83
2022-09-27T02:05:11.715Z,3.47
2022-09-27T02:07:53.468Z,3.42
2022-09-27T02:10:29.214Z,3.15
2022-09-27T02:13:47.113Z,3.60
2022-09-27T02:16:53.069Z,3.60
2022-09-27T02:19:53.340Z,3.60
2022-09-27T02:22:35.649Z,3.60
2022-09-27T02:25:24.402Z,3.63
2022-09-27T02:28:12.399Z,3.70
2022-09-27T02:30:41.879Z,3.90
2022-09-27T02:33:43.877Z,3.60
2022-09-27T02:36:11.621Z,3.22
2022-09-27T02:38:40.005Z,3.60
2022-09-27T02:41:15.807Z,3.28
2022-09-27T02:43:47.239Z,3.50
2022-09-27T02:46:25.973Z,3.80
2022-09-27T02:49:27.492Z,3.42
2022-09-27T02:52:12.993Z,3.60
2022-09-27T02:54:52.448Z,4.00
2022-09-27T02:57:48.831Z,4.22
2022-09-27T03:00:48.183Z,3.92
2022-09-27T03:03:58.083Z,3.95
2022-09-27T03:06:25.935Z,3.70
2022-09-27T03:08:54.343Z,4.57
2022-09-27T03:11:21.687Z,4.32
2022-09-27T03:14:07.345Z,4.28
2022-09-27T03:16:38.058Z,4.28
2022-09-27T03:19:25.904Z,4.20
2022-09-27T03:22:19.303Z,4.20
2022-09-27T03:24:46.932Z,4.40
2022-09-27T03:27:14.366Z,4.60
2022-09-27T03:29:41.905Z,4.30
2022-09-27T03:32:10.797Z,4.72
2022-09-27T03:34:58.464Z,4.72
2022-09-27T03:37:29.302Z,4.78
2022-09-27T03:39:56.688Z,4.90
2022-09-27T03:42:24.386Z,5.15
2022-09-27T03:44:52.762Z,4.80
2022-09-27T03:47:20.159Z,4.40
2022-09-27T03:49:48.145Z,5.38
2022-09-27T03:52:16.902Z,5.10
2022-09-27T03:54:45.481Z,5.68
2022-09-27T03:57:12.965Z,5.95
2022-09-27T03:59:40.989Z,5.57
2022-09-27T04:02:27.951Z,5.88
2022-09-27T04:05:28.976Z,5.80
2022-09-27T04:08:23.156Z,5.78
2022-09-27T04:10:51.939Z,5.85
2022-09-27T04:13:19.531Z,6.50
2022-09-27T04:15:54.218Z,5.90
2022-09-27T04:18:39.894Z,6.40
2022-09-27T04:21:13.151Z,6.40
2022-09-27T04:23:46.999Z,6.43
2022-09-27T04:26:17.477Z,6.13
2022-09-27T04:28:55.063Z,6.65
2022-09-27T04:31:23.333Z,5.60
2022-09-27T04:33:54.825Z,5.68
2022-09-27T04:36:28.021Z,5.22
2022-09-27T04:39:10.956Z,5.20
2022-09-27T04:41:41.458Z,5.03
2022-09-27T04:44:08.843Z,5.43
2022-09-27T04:46:36.475Z,5.25
2022-09-27T04:49:03.938Z,5.68
2022-09-27T04:51:33.700Z,5.30
2022-09-27T04:54:01.895Z,4.95
2022-09-27T04:56:35.258Z,5.53
2022-09-27T04:59:09.739Z,5.75
2022-09-27T05:01:39.281Z,5.97
2022-09-27T05:04:18.118Z,6.10
2022-09-27T05:06:56.313Z,5.93
2022-09-27T05:09:31.933Z,5.70
2022-09-27T05:11:59.803Z,4.63
2022-09-27T05:14:33.345Z,5.57
2022-09-27T05:17:12.629Z,5.60
2022-09-27T05:19:59.744Z,5.65
2022-09-27T05:22:40.296Z,5.97
2022-09-27T05:25:08.654Z,5.57
2022-09-27T05:27:36.002Z,5.22
2022-09-27T05:30:05.745Z,5.55
2022-09-27T05:32:49.291Z,5.25
2022-09-27T05:35:36.143Z,5.18
2022-09-27T05:38:04.095Z,6.18
2022-09-27T05:40:42.719Z,5.90
2022-09-27T05:43:11.974Z,5.13
2022-09-27T05:45:39.404Z,6.15
2022-09-27T05:48:08.307Z,5.75
2022-09-27T05:50:45.432Z,5.43
2022-09-27T05:53:13.447Z,5.95
2022-09-27T05:55:43.103Z,6.32
2022-09-27T05:58:11.486Z,6.05
2022-09-27T06:00:44.730Z,6.45
2022-09-27T06:03:33.525Z,6.03
2022-09-27T06:06:23.701Z,5.82
2022-09-27T06:08:55.330Z,5.72
2022-09-27T06:11:25.436Z,5.72
2022-09-27T06:13:52.947Z,5.55
2022-09-27T06:16:20.828Z,5.70
2022-09-27T06:18:48.240Z,6.13
2022-09-27T06:21:16.611Z,5.13
2022-09-27T06:23:54.202Z,5.70
2022-09-27T06:26:29.228Z,5.70
2022-09-27T06:29:22.291Z,5.50
2022-09-27T06:31:59.216Z,5.72
2022-09-27T06:34:46.814Z,5.88
2022-09-27T06:37:15.319Z,4.60
2022-09-27T06:39:42.842Z,4.25
2022-09-27T06:42:33.575Z,3.67
2022-09-27T06:45:20.083Z,3.00
2022-09-27T06:48:13.058Z,2.90
2022-09-27T06:50:50.514Z,3.20
2022-09-27T06:53:20.603Z,2.47
2022-09-27T06:55:48.051Z,3.05
2022-09-27T06:58:34.279Z,2.83
2022-09-27T07:01:27.987Z,3.33
2022-09-27T07:04:13.622Z,3.35
2022-09-27T07:06:57.840Z,2.88
2022-09-27T07:09:27.848Z,2.50
2022-09-27T07:11:55.889Z,2.22
2022-09-27T07:14:23.745Z,2.40
2022-09-27T07:16:53.649Z,2.10
2022-09-27T07:19:23.176Z,1.50
2022-09-27T07:21:52.602Z,0.90
2022-09-27T07:24:20.308Z,1.13
2022-09-27T07:26:48.866Z,1.25
2022-09-27T07:29:18.574Z,1.40
2022-09-27T07:31:46.153Z,1.58
2022-09-27T07:34:13.583Z,1.20
2022-09-27T07:36:40.996Z,0.80
2022-09-27T07:39:09.868Z,0.50
2022-09-27T07:41:39.239Z,0.70
2022-09-27T07:44:08.147Z,0.60
2022-09-27T07:46:45.017Z,0.68
2022-09-27T07:49:20.002Z,0.75
2022-09-27T07:52:19.758Z,0.60
2022-09-27T07:58:09.004Z,0.60
2022-09-27T08:00:37.584Z,0.60
2022-09-27T08:03:10.965Z,0.52
2022-09-27T08:05:38.706Z,0.60
2022-09-27T08:08:06.194Z,0.73
2022-09-27T08:10:34.321Z,0.60
2022-09-27T08:13:05.787Z,0.47
2022-09-27T08:15:36.022Z,0.55
2022-09-27T08:18:03.568Z,0.40
2022-09-27T08:20:59.402Z,0.43
2022-09-27T08:23:36.930Z,0.38
2022-09-27T08:26:30.230Z,0.50
2022-09-27T08:29:12.751Z,0.32
2022-09-27T08:31:45.076Z,0.57
2022-09-27T08:34:12.557Z,0.30
2022-09-27T08:36:40.034Z,0.52
2022-09-27T08:39:07.396Z,0.50
2022-09-27T08:42:01.972Z,0.40
2022-09-27T08:44:43.017Z,0.32
2022-09-27T08:47:34.999Z,0.47
2022-09-27T08:50:22.907Z,0.65
2022-09-27T08:53:03.541Z,0.70
2022-09-27T08:58:30.631Z,0.73
2022-09-27T09:01:03.344Z,0.80
2022-09-27T09:03:43.974Z,0.88
2022-09-27T09:06:14.386Z,1.00
2022-09-27T09:08:50.941Z,1.20
2022-09-27T09:11:55.119Z,1.10
2022-09-27T09:14:45.772Z,1.35
2022-09-27T09:17:17.662Z,1.35
2022-09-27T09:20:20.239Z,1.70
2022-09-27T09:23:30.654Z,1.60
2022-09-27T09:26:03.411Z,1.90
2022-09-27T09:28:46.132Z,2.00
2022-09-27T09:31:35.711Z,2.22
2022-09-27T09:34:36.846Z,2.10
2022-09-27T09:37:45.331Z,2.10
2022-09-27T09:40:46.224Z,3.15
2022-09-27T09:43:24.061Z,2.90
2022-09-27T09:46:02.328Z,2.50
2022-09-27T09:48:32.279Z,2.55
2022-09-27T09:51:02.335Z,2.78
2022-09-27T09:53:32.652Z,3.00
2022-09-27T09:56:09.492Z,3.08
2022-09-27T09:58:43.642Z,3.17
2022-09-27T10:01:27.979Z,3.10
2022-09-27T10:03:57.086Z,3.40
2022-09-27T10:06:26.546Z,3.30
2022-09-27T10:08:55.764Z,3.78
2022-09-27T10:11:39.643Z,3.65
2022-09-27T10:14:18.398Z,3.30
2022-09-27T10:16:49.135Z,3.83
2022-09-27T10:19:26.902Z,3.50
2022-09-27T10:22:02.719Z,3.50
2022-09-27T10:24:59.056Z,3.90
2022-09-27T10:27:48.956Z,3.70
2022-09-27T10:30:29.390Z,4.20
2022-09-27T10:33:04.362Z,3.72
2022-09-27T10:35:47.037Z,3.70
2022-09-27T10:38:34.805Z,3.83
2022-09-27T10:41:35.002Z,4.07
2022-09-27T10:44:15.546Z,4.20
2022-09-27T10:46:46.331Z,4.43
2022-09-27T10:49:41.408Z,3.80
2022-09-27T10:52:27.380Z,4.80
2022-09-27T10:55:01.693Z,4.43
2022-09-27T10:57:31.124Z,4.50
2022-09-27T11:00:07.494Z,4.10
2022-09-27T11:02:37.582Z,4.78
2022-09-27T11:05:30.947Z,4.30
2022-09-27T11:08:00.216Z,4.55
2022-09-27T11:11:24.361Z,4.07
2022-09-27T11:14:00.916Z,4.68
2022-09-27T11:17:07.610Z,4.47
2022-09-27T11:20:23.351Z,5.50
2022-09-27T11:23:21.804Z,4.13
2022-09-27T11:26:05.686Z,4.57
2022-09-27T11:28:42.102Z,3.85
2022-09-27T11:31:43.019Z,4.07
2022-09-27T11:34:31.720Z,3.95
2022-09-27T11:37:11.920Z,3.78
2022-09-27T11:39:48.666Z,3.85
2022-09-27T11:42:53.549Z,4.47
2022-09-27T11:46:15.302Z,4.70
2022-09-27T11:49:02.456Z,4.82
2022-09-27T11:52:14.676Z,5.10
2022-09-27T11:54:55.170Z,4.75
2022-09-27T11:57:31.952Z,5.18
2022-09-27T12:00:05.894Z,5.53
2022-09-27T12:03:15.055Z,5.25
2022-09-27T12:05:58.705Z,4.38
2022-09-27T12:08:36.404Z,4.35
2022-09-27T12:11:16.333Z,4.68
2022-09-27T12:13:48.914Z,4.72
2022-09-27T12:16:19.545Z,4.78
2022-09-27T12:18:51.602Z,5.45
2022-09-27T12:21:39.224Z,4.97
2022-09-27T12:24:09.090Z,4.47
2022-09-27T12:26:49.504Z,4.43
2022-09-27T12:29:31.625Z,5.22
2022-09-27T12:32:11.547Z,4.63
2022-09-27T12:34:56.352Z,5.05
2022-09-27T12:37:28.843Z,4.40
2022-09-27T12:40:02.327Z,4.53
2022-09-27T12:45:39.490Z,4.97
2022-09-27T12:48:10.686Z,4.80
2022-09-27T12:50:53.271Z,5.35
2022-09-27T12:56:14.226Z,4.53
2022-09-27T12:59:17.591Z,4.95
2022-09-27T13:01:58.435Z,4.47
2022-09-27T13:04:34.055Z,4.47
2022-09-27T13:07:14.594Z,5.03
2022-09-27T13:10:26.291Z,4.57
2022-09-27T13:12:57.225Z,4.78
2022-09-27T13:15:31.563Z,5.18
2022-09-27T13:18:03.691Z,6.57
2022-09-27T13:20:42.584Z,6.00
2022-09-27T13:23:40.852Z,5.70
2022-09-27T13:29:04.710Z,5.00
2022-09-27T13:31:54.536Z,5.40
2022-09-27T13:34:55.101Z,5.15
2022-09-27T13:37:36.802Z,5.63
2022-09-27T13:40:18.428Z,5.75
2022-09-27T13:43:17.764Z,5.40
2022-09-27T13:45:57.149Z,5.40
2022-09-27T13:48:32.563Z,5.80
2022-09-27T13:51:21.845Z,5.13
2022-09-27T13:54:00.974Z,4.80
2022-09-27T13:56:38.231Z,5.32
2022-09-27T13:59:12.117Z,5.68
2022-09-27T14:02:29.916Z,6.13
2022-09-27T14:05:01.151Z,6.05
2022-09-27T14:07:40.554Z,5.70
2022-09-27T14:10:16.222Z,6.25
2022-09-27T14:12:45.591Z,5.85
2022-09-27T14:15:22.709Z,5.40
2022-09-27T14:17:50.809Z,6.20
2022-09-27T14:20:34.338Z,5.82
2022-09-27T14:23:03.986Z,6.18
2022-09-27T14:25:44.422Z,7.00
2022-09-27T14:28:25.066Z,6.43
2022-09-27T14:31:18.371Z,6.90
2022-09-27T14:34:08.663Z,7.00
2022-09-27T14:37:01.415Z,7.75
2022-09-27T14:39:35.757Z,7.10
2022-09-27T14:42:20.928Z,7.05
2022-09-27T14:44:49.944Z,6.95
2022-09-27T14:47:28.226Z,7.70
2022-09-27T14:49:59.749Z,6.93
2022-09-27T14:52:35.387Z,6.47
2022-09-27T14:55:15.435Z,7.65
2022-09-27T14:57:49.380Z,7.50
2022-09-27T15:00:18.584Z,7.25
2022-09-27T15:02:46.295Z,7.10
2022-09-27T15:05:19.070Z,7.30
2022-09-27T15:07:47.746Z,7.00
2022-09-27T15:10:35.926Z,8.30
2022-09-27T15:13:05.211Z,7.35
2022-09-27T15:15:35.590Z,8.13
2022-09-27T15:18:04.049Z,7.72
2022-09-27T15:20:35.366Z,8.30
2022-09-27T15:23:07.547Z,8.18
2022-09-27T15:28:11.247Z,8.40
2022-09-27T15:30:41.250Z,8.35
2022-09-27T15:33:21.261Z,7.90
2022-09-27T15:35:54.467Z,7.68
2022-09-27T15:38:47.456Z,8.50
2022-09-27T15:41:17.048Z,8.27
2022-09-27T15:43:47.959Z,8.02
2022-09-27T15:46:36.645Z,8.40
2022-09-27T15:49:26.781Z,8.73
2022-09-27T15:51:55.904Z,8.70
2022-09-27T15:54:27.109Z,8.20
2022-09-27T15:56:56.228Z,9.10
2022-09-27T15:59:28.654Z,8.90
2022-09-27T16:01:58.879Z,8.88
2022-09-27T16:04:27.559Z,8.88
2022-09-27T16:06:55.023Z,8.93
2022-09-27T16:09:22.553Z,9.70
2022-09-27T16:11:50.710Z,8.82
2022-09-27T16:14:19.683Z,8.68
2022-09-27T16:16:50.682Z,8.48
2022-09-27T16:19:18.465Z,8.40
2022-09-27T16:21:47.704Z,8.35
2022-09-27T16:24:17.145Z,8.77
2022-09-27T16:26:44.821Z,8.25
2022-09-27T16:29:14.558Z,8.15
2022-09-27T16:31:42.766Z,8.52
2022-09-27T16:34:11.776Z,8.45
2022-09-27T16:36:39.674Z,10.93
2022-09-27T16:39:10.551Z,19.20
2022-09-27T16:41:38.128Z,144.80
2022-09-27T16:44:10.876Z,56.13
2022-09-27T16:46:41.838Z,37.72
2022-09-27T16:49:29.521Z,165.02
2022-09-27T16:52:00.190Z,74.13
2022-09-27T16:54:30.922Z,71.88
2022-09-27T16:56:59.364Z,39.38
2022-09-27T16:59:27.199Z,25.63
2022-09-27T17:01:57.452Z,16.20
2022-09-27T17:04:26.027Z,12.13
2022-09-27T17:06:54.052Z,11.75
2022-09-27T17:09:21.836Z,11.98
2022-09-27T17:11:49.431Z,10.10
2022-09-27T17:14:17.662Z,9.40
2022-09-27T17:16:47.033Z,9.95
2022-09-27T17:19:15.947Z,9.63
2022-09-27T17:21:43.569Z,8.93
2022-09-27T17:24:13.831Z,10.13
2022-09-27T17:26:41.496Z,9.38
2022-09-27T17:29:11.217Z,9.48
2022-09-27T17:31:40.400Z,9.68
2022-09-27T17:34:12.240Z,8.85
2022-09-27T17:39:13.981Z,9.38
2022-09-27T17:41:42.325Z,8.43
2022-09-27T17:44:16.040Z,9.23
2022-09-27T17:47:20.731Z,8.90
2022-09-27T17:50:06.675Z,9.52
2022-09-27T17:52:34.419Z,8.93
2022-09-27T17:55:01.882Z,9.35
2022-09-27T17:57:29.178Z,9.05
2022-09-27T17:59:57.967Z,9.32
2022-09-27T18:02:26.498Z,9.52
2022-09-27T18:04:53.799Z,8.82
2022-09-27T18:07:23.997Z,9.25
2022-09-27T18:09:51.642Z,9.68
2022-09-27T18:12:18.893Z,10.07
2022-09-27T18:14:46.171Z,8.93
2022-09-27T18:17:14.040Z,9.50
2022-09-27T18:19:41.289Z,9.05
2022-09-27T18:22:08.558Z,8.43
2022-09-27T18:24:35.877Z,8.98
2022-09-27T18:27:04.185Z,10.02
2022-09-27T18:29:31.486Z,9.10
2022-09-27T18:31:58.748Z,9.38
2022-09-27T18:34:26.018Z,8.85
2022-09-27T18:36:53.250Z,9.93
2022-09-27T18:39:22.864Z,9.60
2022-09-27T18:41:50.516Z,9.65
2022-09-27T18:44:18.486Z,9.80
2022-09-27T18:46:46.114Z,10.30
2022-09-27T18:49:14.799Z,10.07
2022-09-27T18:51:47.387Z,9.82
2022-09-27T18:54:19.140Z,10.20
2022-09-27T18:56:48.350Z,10.27
2022-09-27T18:59:17.176Z,9.77
2022-09-27T19:01:45.852Z,9.98
2022-09-27T19:04:19.233Z,9.43
2022-09-27T19:06:51.160Z,9.25
2022-09-27T19:09:18.869Z,8.77
2022-09-27T19:11:46.363Z,8.93
2022-09-27T19:14:19.133Z,8.77
2022-09-27T19:16:48.048Z,8.35
2022-09-27T19:19:16.791Z,8.55
2022-09-27T19:21:44.226Z,7.72
2022-09-27T19:24:12.198Z,7.93
2022-09-27T19:26:39.527Z,8.02
2022-09-27T19:29:06.755Z,7.47
2022-09-27T19:31:35.833Z,7.50
2022-09-27T19:34:03.656Z,7.50
2022-09-27T19:36:31.419Z,7.53
2022-09-27T19:38:59.882Z,7.57
2022-09-27T19:41:27.402Z,8.10
2022-09-27T19:43:56.074Z,7.97
2022-09-27T19:46:27.019Z,7.60
2022-09-27T19:48:56.071Z,7.88
2022-09-27T19:51:25.771Z,8.15
2022-09-27T19:53:54.288Z,7.82
2022-09-27T19:56:22.361Z,8.05
2022-09-27T19:58:50.162Z,8.85
2022-09-27T20:01:20.770Z,8.07
2022-09-27T20:03:49.952Z,8.43
2022-09-27T20:06:19.594Z,8.43
2022-09-27T20:08:50.302Z,8.00
2022-09-27T20:11:22.845Z,8.05
2022-09-27T20:13:52.862Z,7.63
2022-09-27T20:16:24.507Z,7.93
2022-09-27T20:18:57.780Z,8.35
2022-09-27T20:21:32.428Z,8.80
2022-09-27T20:24:01.902Z,9.70
2022-09-27T20:26:30.889Z,9.15
2022-09-27T20:29:00.505Z,9.30
2022-09-27T20:31:33.566Z,9.52
2022-09-27T20:34:01.276Z,8.38
2022-09-27T20:36:31.745Z,8.45
2022-09-27T20:39:03.035Z,8.98
2022-09-27T20:41:33.138Z,7.70
2022-09-27T20:44:06.329Z,8.60
2022-09-27T20:46:35.374Z,8.27
2022-09-27T20:49:06.171Z,8.55
2022-09-27T20:51:35.340Z,7.93
2022-09-27T20:54:04.134Z,7.85
2022-09-27T20:56:34.103Z,7.35
2022-09-27T20:59:12.727Z,6.50
2022-09-27T21:01:48.185Z,6.32
2022-09-27T21:04:17.694Z,6.10
2022-09-27T21:06:45.452Z,6.82
2022-09-27T21:09:20.332Z,6.40
2022-09-27T21:11:49.222Z,6.85
2022-09-27T21:14:16.738Z,6.70
2022-09-27T21:16:44.212Z,6.97
2022-09-27T21:19:29.925Z,6.78
2022-09-27T21:21:57.156Z,6.60
2022-09-27T21:24:24.440Z,5.95
2022-09-27T21:26:53.271Z,6.50
2022-09-27T21:29:21.317Z,5.53
2022-09-27T21:31:48.586Z,5.15
2022-09-27T21:34:16.420Z,4.80
2022-09-27T21:36:43.712Z,4.03
2022-09-27T21:39:11.283Z,4.60
2022-09-27T21:41:39.252Z,3.95
2022-09-27T21:44:07.999Z,4.15
2022-09-27T21:46:39.917Z,3.70
2022-09-27T21:49:09.709Z,4.13
2022-09-27T21:51:39.094Z,3.58
2022-09-27T21:54:10.065Z,3.85
2022-09-27T21:56:38.744Z,3.20
2022-09-27T21:59:07.699Z,3.28
2022-09-27T22:01:35.785Z,3.55
2022-09-27T22:04:04.977Z,3.10
2022-09-27T22:06:36.140Z,3.50
2022-09-27T22:09:06.089Z,3.23
2022-09-27T22:11:37.993Z,2.70
2022-09-27T22:14:09.468Z,2.92
2022-09-27T22:16:37.513Z,3.00
2022-09-27T22:19:04.988Z,3.00
2022-09-27T22:21:35.535Z,3.03
2022-09-27T22:24:08.618Z,2.90
2022-09-27T22:26:41.362Z,2.90
2022-09-27T22:29:09.199Z,3.35
2022-09-27T22:31:37.415Z,4.25
2022-09-27T22:34:07.599Z,3.70
2022-09-27T22:36:35.086Z,3.60
2022-09-27T22:39:02.449Z,3.30
2022-09-27T22:41:30.521Z,3.42
2022-09-27T22:43:58.104Z,3.88
2022-09-27T22:46:25.543Z,4.00
2022-09-27T22:48:53.111Z,3.75
2022-09-27T22:51:20.389Z,3.83
2022-09-27T22:53:50.574Z,3.90
2022-09-27T22:56:19.912Z,3.90
2022-09-27T22:58:48.504Z,3.75
2022-09-27T23:01:20.304Z,3.85
2022-09-27T23:03:49.530Z,4.20
2022-09-27T23:06:18.640Z,4.20
2022-09-27T23:08:47.388Z,4.70
2022-09-27T23:11:20.073Z,4.32
2022-09-27T23:13:48.394Z,4.40
2022-09-27T23:16:18.477Z,4.25
2022-09-27T23:18:47.617Z,4.60
2022-09-27T23:21:16.106Z,4.55
2022-09-27T23:23:45.685Z,4.25
2022-09-27T23:26:15.839Z,4.55
2022-09-27T23:28:43.296Z,4.78
2022-09-27T23:31:16.685Z,4.35
2022-09-27T23:33:48.425Z,4.63
2022-09-27T23:36:18.339Z,4.30
2022-09-27T23:38:47.835Z,5.00
2022-09-27T23:41:16.711Z,4.57
2022-09-27T23:43:44.624Z,4.40
2022-09-27T23:46:12.770Z,4.88
2022-09-27T23:48:40.421Z,5.15
2022-09-27T23:51:10.213Z,5.63
2022-09-27T23:53:39.026Z,4.80
2022-09-27T23:56:10.369Z,5.30
2022-09-27T23:58:42.491Z,6.00
